sensor_id;sensor_type;location;lat;lon;timestamp;P1;durP1;ratioP1;P2;durP2;ratioP2
8737;SDS011;4405;49.272;8.590;2023-05-20T00:00:15;2.00;;;1.90;;
8737;SDS011;4405;49.272;8.590;2023-05-20T00:02:43;2.20;;;2.00;;
8737;SDS011;4405;49.272;8.590;2023-05-20T00:05:09;2.03;;;1.93;;
8737;SDS011;4405;49.272;8.590;2023-05-20T00:07:36;2.07;;;1.93;;
8737;SDS011;4405;49.272;8.590;2023-05-20T00:10:02;2.23;;;2.10;;
8737;SDS011;4405;49.272;8.590;2023-05-20T00:12:28;2.20;;;2.10;;
8737;SDS011;4405;49.272;8.590;2023-05-20T00:14:55;2.03;;;1.93;;
8737;SDS011;4405;49.272;8.590;2023-05-20T00:17:21;2.13;;;2.03;;
8737;SDS011;4405;49.272;8.590;2023-05-20T00:19:49;2.27;;;2.10;;
8737;SDS011;4405;49.272;8.590;2023-05-20T00:22:15;2.13;;;2.03;;
8737;SDS011;4405;49.272;8.590;2023-05-20T00:24:41;2.13;;;2.03;;
8737;SDS011;4405;49.272;8.590;2023-05-20T00:27:08;2.20;;;2.10;;
8737;SDS011;4405;49.272;8.590;2023-05-20T00:29:34;2.40;;;2.30;;
8737;SDS011;4405;49.272;8.590;2023-05-20T00:32:00;2.50;;;2.40;;
8737;SDS011;4405;49.272;8.590;2023-05-20T00:34:27;2.20;;;2.10;;
8737;SDS011;4405;49.272;8.590;2023-05-20T00:36:54;2.10;;;2.00;;
8737;SDS011;4405;49.272;8.590;2023-05-20T00:39:21;2.40;;;2.20;;
8737;SDS011;4405;49.272;8.590;2023-05-20T00:41:47;2.50;;;2.30;;
8737;SDS011;4405;49.272;8.590;2023-05-20T00:44:13;2.20;;;2.10;;
8737;SDS011;4405;49.272;8.590;2023-05-20T00:46:42;2.17;;;2.07;;
8737;SDS011;4405;49.272;8.590;2023-05-20T00:49:08;2.30;;;2.20;;
8737;SDS011;4405;49.272;8.590;2023-05-20T00:51:34;2.33;;;2.30;;
8737;SDS011;4405;49.272;8.590;2023-05-20T00:54:02;2.27;;;2.17;;
8737;SDS011;4405;49.272;8.590;2023-05-20T00:56:28;2.40;;;2.30;;
8737;SDS011;4405;49.272;8.590;2023-05-20T00:58:55;2.57;;;2.47;;
8737;SDS011;4405;49.272;8.590;2023-05-20T01:01:22;2.40;;;2.30;;
8737;SDS011;4405;49.272;8.590;2023-05-20T01:03:48;2.57;;;2.20;;
8737;SDS011;4405;49.272;8.590;2023-05-20T01:06:14;2.10;;;2.00;;
8737;SDS011;4405;49.272;8.590;2023-05-20T01:08:41;3.27;;;2.43;;
8737;SDS011;4405;49.272;8.590;2023-05-20T01:11:10;2.30;;;2.20;;
8737;SDS011;4405;49.272;8.590;2023-05-20T01:13:41;2.30;;;2.10;;
8737;SDS011;4405;49.272;8.590;2023-05-20T01:16:08;2.50;;;2.30;;
8737;SDS011;4405;49.272;8.590;2023-05-20T01:18:35;2.67;;;2.43;;
8737;SDS011;4405;49.272;8.590;2023-05-20T01:21:05;2.77;;;2.57;;
8737;SDS011;4405;49.272;8.590;2023-05-20T01:23:36;2.43;;;2.33;;
8737;SDS011;4405;49.272;8.590;2023-05-20T01:26:03;2.20;;;2.10;;
8737;SDS011;4405;49.272;8.590;2023-05-20T01:28:30;3.13;;;2.70;;
8737;SDS011;4405;49.272;8.590;2023-05-20T01:30:57;2.17;;;2.17;;
8737;SDS011;4405;49.272;8.590;2023-05-20T01:33:25;2.40;;;2.30;;
8737;SDS011;4405;49.272;8.590;2023-05-20T01:35:52;2.63;;;2.50;;
8737;SDS011;4405;49.272;8.590;2023-05-20T01:38:18;2.50;;;2.40;;
8737;SDS011;4405;49.272;8.590;2023-05-20T01:40:47;2.40;;;2.30;;
8737;SDS011;4405;49.272;8.590;2023-05-20T01:43:13;2.53;;;2.33;;
8737;SDS011;4405;49.272;8.590;2023-05-20T01:45:41;2.53;;;2.33;;
8737;SDS011;4405;49.272;8.590;2023-05-20T01:48:08;2.27;;;2.17;;
8737;SDS011;4405;49.272;8.590;2023-05-20T01:50:35;2.20;;;2.10;;
8737;SDS011;4405;49.272;8.590;2023-05-20T01:53:02;2.43;;;2.27;;
8737;SDS011;4405;49.272;8.590;2023-05-20T01:55:28;2.37;;;2.27;;
8737;SDS011;4405;49.272;8.590;2023-05-20T01:57:56;2.30;;;2.20;;
8737;SDS011;4405;49.272;8.590;2023-05-20T02:00:22;2.00;;;1.90;;
8737;SDS011;4405;49.272;8.590;2023-05-20T02:02:48;2.53;;;2.43;;
8737;SDS011;4405;49.272;8.590;2023-05-20T02:05:15;3.33;;;2.30;;
8737;SDS011;4405;49.272;8.590;2023-05-20T02:07:41;2.50;;;2.40;;
8737;SDS011;4405;49.272;8.590;2023-05-20T02:10:07;2.20;;;2.10;;
8737;SDS011;4405;49.272;8.590;2023-05-20T02:12:34;2.20;;;2.10;;
8737;SDS011;4405;49.272;8.590;2023-05-20T02:15:02;2.30;;;2.20;;
8737;SDS011;4405;49.272;8.590;2023-05-20T02:17:28;2.40;;;2.30;;
8737;SDS011;4405;49.272;8.590;2023-05-20T02:19:54;2.50;;;2.40;;
8737;SDS011;4405;49.272;8.590;2023-05-20T02:22:21;2.50;;;2.40;;
8737;SDS011;4405;49.272;8.590;2023-05-20T02:24:47;2.30;;;2.20;;
8737;SDS011;4405;49.272;8.590;2023-05-20T02:27:13;2.30;;;2.20;;
8737;SDS011;4405;49.272;8.590;2023-05-20T02:29:41;2.23;;;2.13;;
8737;SDS011;4405;49.272;8.590;2023-05-20T02:32:09;2.63;;;2.50;;
8737;SDS011;4405;49.272;8.590;2023-05-20T02:34:36;2.47;;;2.30;;
8737;SDS011;4405;49.272;8.590;2023-05-20T02:37:02;2.77;;;2.53;;
8737;SDS011;4405;49.272;8.590;2023-05-20T02:39:29;2.30;;;2.20;;
8737;SDS011;4405;49.272;8.590;2023-05-20T02:41:55;2.13;;;2.10;;
8737;SDS011;4405;49.272;8.590;2023-05-20T02:44:21;2.47;;;2.37;;
8737;SDS011;4405;49.272;8.590;2023-05-20T02:46:48;2.50;;;2.30;;
8737;SDS011;4405;49.272;8.590;2023-05-20T02:49:16;2.40;;;2.30;;
8737;SDS011;4405;49.272;8.590;2023-05-20T02:51:42;2.50;;;2.30;;
8737;SDS011;4405;49.272;8.590;2023-05-20T02:54:08;2.57;;;2.47;;
8737;SDS011;4405;49.272;8.590;2023-05-20T02:56:35;2.63;;;2.43;;
8737;SDS011;4405;49.272;8.590;2023-05-20T02:59:01;4.20;;;2.50;;
8737;SDS011;4405;49.272;8.590;2023-05-20T03:01:28;2.50;;;2.33;;
8737;SDS011;4405;49.272;8.590;2023-05-20T03:03:55;2.27;;;2.17;;
8737;SDS011;4405;49.272;8.590;2023-05-20T03:06:23;2.47;;;2.30;;
8737;SDS011;4405;49.272;8.590;2023-05-20T03:08:49;2.60;;;2.40;;
8737;SDS011;4405;49.272;8.590;2023-05-20T03:11:15;2.47;;;2.30;;
8737;SDS011;4405;49.272;8.590;2023-05-20T03:13:41;2.50;;;2.30;;
8737;SDS011;4405;49.272;8.590;2023-05-20T03:16:08;2.63;;;2.47;;
8737;SDS011;4405;49.272;8.590;2023-05-20T03:18:36;2.43;;;2.33;;
8737;SDS011;4405;49.272;8.590;2023-05-20T03:21:03;2.60;;;2.40;;
8737;SDS011;4405;49.272;8.590;2023-05-20T03:23:31;3.33;;;2.30;;
8737;SDS011;4405;49.272;8.590;2023-05-20T03:25:57;2.30;;;2.20;;
8737;SDS011;4405;49.272;8.590;2023-05-20T03:28:23;2.27;;;2.17;;
8737;SDS011;4405;49.272;8.590;2023-05-20T03:30:50;2.80;;;2.60;;
8737;SDS011;4405;49.272;8.590;2023-05-20T03:33:16;2.40;;;2.30;;
8737;SDS011;4405;49.272;8.590;2023-05-20T03:35:43;2.77;;;2.30;;
8737;SDS011;4405;49.272;8.590;2023-05-20T03:38:09;2.40;;;2.30;;
8737;SDS011;4405;49.272;8.590;2023-05-20T03:40:37;2.97;;;2.57;;
8737;SDS011;4405;49.272;8.590;2023-05-20T03:43:03;2.50;;;2.40;;
8737;SDS011;4405;49.272;8.590;2023-05-20T03:45:29;2.70;;;2.50;;
8737;SDS011;4405;49.272;8.590;2023-05-20T03:47:57;2.60;;;2.40;;
8737;SDS011;4405;49.272;8.590;2023-05-20T03:50:24;2.60;;;2.50;;
8737;SDS011;4405;49.272;8.590;2023-05-20T03:52:50;2.90;;;2.70;;
8737;SDS011;4405;49.272;8.590;2023-05-20T03:55:16;2.67;;;2.47;;
8737;SDS011;4405;49.272;8.590;2023-05-20T03:57:45;2.70;;;2.60;;
8737;SDS011;4405;49.272;8.590;2023-05-20T04:00:12;2.60;;;2.40;;
8737;SDS011;4405;49.272;8.590;2023-05-20T04:02:38;2.57;;;2.47;;
8737;SDS011;4405;49.272;8.590;2023-05-20T04:05:06;2.83;;;2.63;;
8737;SDS011;4405;49.272;8.590;2023-05-20T04:07:34;2.60;;;2.40;;
8737;SDS011;4405;49.272;8.590;2023-05-20T04:10:00;2.30;;;2.13;;
8737;SDS011;4405;49.272;8.590;2023-05-20T04:12:27;2.30;;;2.20;;
8737;SDS011;4405;49.272;8.590;2023-05-20T04:14:56;2.60;;;2.50;;
8737;SDS011;4405;49.272;8.590;2023-05-20T04:17:25;2.60;;;2.40;;
8737;SDS011;4405;49.272;8.590;2023-05-20T04:19:52;2.50;;;2.40;;
8737;SDS011;4405;49.272;8.590;2023-05-20T04:22:18;2.57;;;2.40;;
8737;SDS011;4405;49.272;8.590;2023-05-20T04:24:45;2.70;;;2.60;;
8737;SDS011;4405;49.272;8.590;2023-05-20T04:27:11;3.20;;;3.00;;
8737;SDS011;4405;49.272;8.590;2023-05-20T04:29:38;2.90;;;2.70;;
8737;SDS011;4405;49.272;8.590;2023-05-20T04:32:07;3.03;;;2.90;;
8737;SDS011;4405;49.272;8.590;2023-05-20T04:34:34;3.03;;;2.83;;
8737;SDS011;4405;49.272;8.590;2023-05-20T04:37:01;3.07;;;2.83;;
8737;SDS011;4405;49.272;8.590;2023-05-20T04:39:27;2.60;;;2.50;;
8737;SDS011;4405;49.272;8.590;2023-05-20T04:41:54;3.23;;;3.03;;
8737;SDS011;4405;49.272;8.590;2023-05-20T04:44:20;2.60;;;2.50;;
8737;SDS011;4405;49.272;8.590;2023-05-20T04:46:48;3.37;;;2.80;;
8737;SDS011;4405;49.272;8.590;2023-05-20T04:49:16;2.90;;;2.70;;
8737;SDS011;4405;49.272;8.590;2023-05-20T04:51:43;3.50;;;2.80;;
8737;SDS011;4405;49.272;8.590;2023-05-20T04:54:10;2.60;;;2.50;;
8737;SDS011;4405;49.272;8.590;2023-05-20T04:56:37;2.87;;;2.67;;
8737;SDS011;4405;49.272;8.590;2023-05-20T04:59:04;2.73;;;2.53;;
8737;SDS011;4405;49.272;8.590;2023-05-20T05:01:30;2.90;;;2.70;;
8737;SDS011;4405;49.272;8.590;2023-05-20T05:03:57;2.90;;;2.77;;
8737;SDS011;4405;49.272;8.590;2023-05-20T05:06:24;2.80;;;2.70;;
8737;SDS011;4405;49.272;8.590;2023-05-20T05:08:51;3.00;;;2.80;;
8737;SDS011;4405;49.272;8.590;2023-05-20T05:11:17;2.80;;;2.63;;
8737;SDS011;4405;49.272;8.590;2023-05-20T05:13:43;3.03;;;2.50;;
8737;SDS011;4405;49.272;8.590;2023-05-20T05:16:10;2.70;;;2.50;;
8737;SDS011;4405;49.272;8.590;2023-05-20T05:18:36;2.77;;;2.67;;
8737;SDS011;4405;49.272;8.590;2023-05-20T05:21:03;3.00;;;2.80;;
8737;SDS011;4405;49.272;8.590;2023-05-20T05:23:30;2.73;;;2.53;;
8737;SDS011;4405;49.272;8.590;2023-05-20T05:25:57;2.70;;;2.60;;
8737;SDS011;4405;49.272;8.590;2023-05-20T05:28:24;2.43;;;2.33;;
8737;SDS011;4405;49.272;8.590;2023-05-20T05:30:51;3.17;;;2.73;;
8737;SDS011;4405;49.272;8.590;2023-05-20T05:33:18;2.87;;;2.67;;
8737;SDS011;4405;49.272;8.590;2023-05-20T05:35:45;2.70;;;2.60;;
8737;SDS011;4405;49.272;8.590;2023-05-20T05:38:11;2.60;;;2.40;;
8737;SDS011;4405;49.272;8.590;2023-05-20T05:40:39;2.90;;;2.70;;
8737;SDS011;4405;49.272;8.590;2023-05-20T05:43:05;2.80;;;2.53;;
8737;SDS011;4405;49.272;8.590;2023-05-20T05:45:32;3.27;;;2.60;;
8737;SDS011;4405;49.272;8.590;2023-05-20T05:47:58;2.70;;;2.60;;
8737;SDS011;4405;49.272;8.590;2023-05-20T05:50:25;3.13;;;2.67;;
8737;SDS011;4405;49.272;8.590;2023-05-20T05:52:51;3.37;;;2.70;;
8737;SDS011;4405;49.272;8.590;2023-05-20T05:55:18;2.80;;;2.70;;
8737;SDS011;4405;49.272;8.590;2023-05-20T05:57:45;3.00;;;2.80;;
8737;SDS011;4405;49.272;8.590;2023-05-20T06:00:12;3.13;;;2.77;;
8737;SDS011;4405;49.272;8.590;2023-05-20T06:02:38;2.60;;;2.50;;
8737;SDS011;4405;49.272;8.590;2023-05-20T06:05:05;2.90;;;2.70;;
8737;SDS011;4405;49.272;8.590;2023-05-20T06:07:31;2.77;;;2.60;;
8737;SDS011;4405;49.272;8.590;2023-05-20T06:09:58;3.27;;;3.10;;
8737;SDS011;4405;49.272;8.590;2023-05-20T06:12:24;2.90;;;2.60;;
8737;SDS011;4405;49.272;8.590;2023-05-20T06:14:52;3.00;;;2.67;;
8737;SDS011;4405;49.272;8.590;2023-05-20T06:17:18;2.83;;;2.73;;
8737;SDS011;4405;49.272;8.590;2023-05-20T06:19:44;2.80;;;2.60;;
8737;SDS011;4405;49.272;8.590;2023-05-20T06:22:11;3.10;;;2.90;;
8737;SDS011;4405;49.272;8.590;2023-05-20T06:24:37;2.47;;;2.20;;
8737;SDS011;4405;49.272;8.590;2023-05-20T06:27:04;2.43;;;2.07;;
8737;SDS011;4405;49.272;8.590;2023-05-20T06:29:30;2.40;;;2.20;;
8737;SDS011;4405;49.272;8.590;2023-05-20T06:31:58;3.97;;;2.23;;
8737;SDS011;4405;49.272;8.590;2023-05-20T06:34:24;2.87;;;2.60;;
8737;SDS011;4405;49.272;8.590;2023-05-20T06:36:51;2.10;;;2.00;;
8737;SDS011;4405;49.272;8.590;2023-05-20T06:39:17;4.77;;;2.53;;
8737;SDS011;4405;49.272;8.590;2023-05-20T06:41:44;3.03;;;2.63;;
8737;SDS011;4405;49.272;8.590;2023-05-20T06:44:10;3.63;;;2.40;;
8737;SDS011;4405;49.272;8.590;2023-05-20T06:46:36;4.27;;;2.47;;
8737;SDS011;4405;49.272;8.590;2023-05-20T06:49:04;4.17;;;2.40;;
8737;SDS011;4405;49.272;8.590;2023-05-20T06:51:30;2.73;;;2.50;;
8737;SDS011;4405;49.272;8.590;2023-05-20T06:53:57;5.70;;;2.60;;
8737;SDS011;4405;49.272;8.590;2023-05-20T06:56:23;2.83;;;2.20;;
8737;SDS011;4405;49.272;8.590;2023-05-20T06:58:49;6.40;;;2.70;;
8737;SDS011;4405;49.272;8.590;2023-05-20T07:01:16;3.50;;;2.73;;
8737;SDS011;4405;49.272;8.590;2023-05-20T07:03:42;2.83;;;2.63;;
8737;SDS011;4405;49.272;8.590;2023-05-20T07:06:10;2.40;;;2.30;;
8737;SDS011;4405;49.272;8.590;2023-05-20T07:08:36;2.97;;;2.37;;
8737;SDS011;4405;49.272;8.590;2023-05-20T07:11:02;3.00;;;2.80;;
8737;SDS011;4405;49.272;8.590;2023-05-20T07:13:29;4.13;;;2.60;;
8737;SDS011;4405;49.272;8.590;2023-05-20T07:15:55;3.83;;;2.50;;
8737;SDS011;4405;49.272;8.590;2023-05-20T07:18:22;2.80;;;2.60;;
8737;SDS011;4405;49.272;8.590;2023-05-20T07:20:48;2.43;;;2.33;;
8737;SDS011;4405;49.272;8.590;2023-05-20T07:23:16;3.30;;;2.67;;
8737;SDS011;4405;49.272;8.590;2023-05-20T07:25:42;2.50;;;2.33;;
8737;SDS011;4405;49.272;8.590;2023-05-20T07:28:09;3.37;;;2.87;;
8737;SDS011;4405;49.272;8.590;2023-05-20T07:30:35;2.80;;;2.57;;
8737;SDS011;4405;49.272;8.590;2023-05-20T07:33:01;2.53;;;2.30;;
8737;SDS011;4405;49.272;8.590;2023-05-20T07:35:27;3.13;;;2.60;;
8737;SDS011;4405;49.272;8.590;2023-05-20T07:37:54;3.13;;;2.83;;
8737;SDS011;4405;49.272;8.590;2023-05-20T07:40:22;2.50;;;2.40;;
8737;SDS011;4405;49.272;8.590;2023-05-20T07:42:48;2.70;;;2.60;;
8737;SDS011;4405;49.272;8.590;2023-05-20T07:45:15;3.67;;;2.70;;
8737;SDS011;4405;49.272;8.590;2023-05-20T07:47:41;2.80;;;2.60;;
8737;SDS011;4405;49.272;8.590;2023-05-20T07:50:08;3.63;;;3.30;;
8737;SDS011;4405;49.272;8.590;2023-05-20T07:52:34;3.30;;;2.87;;
8737;SDS011;4405;49.272;8.590;2023-05-20T07:55:01;3.00;;;2.83;;
8737;SDS011;4405;49.272;8.590;2023-05-20T07:57:29;4.20;;;3.17;;
8737;SDS011;4405;49.272;8.590;2023-05-20T07:59:55;3.10;;;2.90;;
8737;SDS011;4405;49.272;8.590;2023-05-20T08:02:21;3.00;;;2.87;;
8737;SDS011;4405;49.272;8.590;2023-05-20T08:04:48;3.00;;;2.83;;
8737;SDS011;4405;49.272;8.590;2023-05-20T08:07:14;2.80;;;2.70;;
8737;SDS011;4405;49.272;8.590;2023-05-20T08:09:40;3.23;;;3.03;;
8737;SDS011;4405;49.272;8.590;2023-05-20T08:12:07;3.13;;;2.93;;
8737;SDS011;4405;49.272;8.590;2023-05-20T08:14:34;3.70;;;3.53;;
8737;SDS011;4405;49.272;8.590;2023-05-20T08:17:01;4.17;;;3.77;;
8737;SDS011;4405;49.272;8.590;2023-05-20T08:19:27;4.00;;;3.80;;
8737;SDS011;4405;49.272;8.590;2023-05-20T08:21:53;3.67;;;3.43;;
8737;SDS011;4405;49.272;8.590;2023-05-20T08:24:20;5.17;;;3.63;;
8737;SDS011;4405;49.272;8.590;2023-05-20T08:26:46;6.03;;;4.40;;
8737;SDS011;4405;49.272;8.590;2023-05-20T08:29:13;4.40;;;4.00;;
8737;SDS011;4405;49.272;8.590;2023-05-20T08:31:40;4.00;;;3.80;;
8737;SDS011;4405;49.272;8.590;2023-05-20T08:34:07;4.23;;;4.03;;
8737;SDS011;4405;49.272;8.590;2023-05-20T08:36:34;4.53;;;4.30;;
8737;SDS011;4405;49.272;8.590;2023-05-20T08:39:00;4.30;;;4.00;;
8737;SDS011;4405;49.272;8.590;2023-05-20T08:41:27;4.30;;;4.10;;
8737;SDS011;4405;49.272;8.590;2023-05-20T08:43:54;4.60;;;4.30;;
8737;SDS011;4405;49.272;8.590;2023-05-20T08:46:20;5.37;;;4.20;;
8737;SDS011;4405;49.272;8.590;2023-05-20T08:48:49;4.50;;;4.10;;
8737;SDS011;4405;49.272;8.590;2023-05-20T08:51:17;4.20;;;3.90;;
8737;SDS011;4405;49.272;8.590;2023-05-20T08:53:45;5.10;;;4.70;;
8737;SDS011;4405;49.272;8.590;2023-05-20T08:56:11;4.10;;;3.90;;
8737;SDS011;4405;49.272;8.590;2023-05-20T08:58:38;4.03;;;3.83;;
8737;SDS011;4405;49.272;8.590;2023-05-20T09:01:04;4.17;;;3.77;;
8737;SDS011;4405;49.272;8.590;2023-05-20T09:03:32;4.60;;;4.30;;
8737;SDS011;4405;49.272;8.590;2023-05-20T09:06:04;4.20;;;4.00;;
8737;SDS011;4405;49.272;8.590;2023-05-20T09:08:31;4.23;;;3.93;;
8737;SDS011;4405;49.272;8.590;2023-05-20T09:10:58;4.30;;;4.00;;
8737;SDS011;4405;49.272;8.590;2023-05-20T09:13:25;6.10;;;4.10;;
8737;SDS011;4405;49.272;8.590;2023-05-20T09:15:52;5.30;;;4.20;;
8737;SDS011;4405;49.272;8.590;2023-05-20T09:18:18;4.50;;;4.20;;
8737;SDS011;4405;49.272;8.590;2023-05-20T09:20:45;4.13;;;3.73;;
8737;SDS011;4405;49.272;8.590;2023-05-20T09:23:13;4.70;;;4.30;;
8737;SDS011;4405;49.272;8.590;2023-05-20T09:25:39;5.23;;;4.30;;
8737;SDS011;4405;49.272;8.590;2023-05-20T09:28:06;7.10;;;4.37;;
8737;SDS011;4405;49.272;8.590;2023-05-20T09:30:32;4.60;;;4.20;;
8737;SDS011;4405;49.272;8.590;2023-05-20T09:32:59;4.40;;;4.00;;
8737;SDS011;4405;49.272;8.590;2023-05-20T09:35:26;4.33;;;4.03;;
8737;SDS011;4405;49.272;8.590;2023-05-20T09:37:53;4.90;;;4.40;;
8737;SDS011;4405;49.272;8.590;2023-05-20T09:40:22;3.90;;;3.70;;
8737;SDS011;4405;49.272;8.590;2023-05-20T09:42:49;5.07;;;4.57;;
8737;SDS011;4405;49.272;8.590;2023-05-20T09:45:16;5.37;;;4.50;;
8737;SDS011;4405;49.272;8.590;2023-05-20T09:47:43;4.30;;;4.00;;
8737;SDS011;4405;49.272;8.590;2023-05-20T09:50:11;5.20;;;4.20;;
8737;SDS011;4405;49.272;8.590;2023-05-20T09:52:39;4.40;;;3.93;;
8737;SDS011;4405;49.272;8.590;2023-05-20T09:55:06;4.13;;;3.93;;
8737;SDS011;4405;49.272;8.590;2023-05-20T09:57:36;4.57;;;4.27;;
8737;SDS011;4405;49.272;8.590;2023-05-20T10:00:03;4.37;;;4.17;;
8737;SDS011;4405;49.272;8.590;2023-05-20T10:02:30;5.27;;;4.43;;
8737;SDS011;4405;49.272;8.590;2023-05-20T10:04:56;4.60;;;4.23;;
8737;SDS011;4405;49.272;8.590;2023-05-20T10:07:33;4.47;;;4.17;;
8737;SDS011;4405;49.272;8.590;2023-05-20T10:10:07;5.30;;;4.80;;
8737;SDS011;4405;49.272;8.590;2023-05-20T10:12:40;4.70;;;4.30;;
8737;SDS011;4405;49.272;8.590;2023-05-20T10:15:13;8.93;;;4.23;;
8737;SDS011;4405;49.272;8.590;2023-05-20T10:17:43;4.60;;;4.37;;
8737;SDS011;4405;49.272;8.590;2023-05-20T10:20:10;7.13;;;4.20;;
8737;SDS011;4405;49.272;8.590;2023-05-20T10:22:36;6.07;;;4.43;;
8737;SDS011;4405;49.272;8.590;2023-05-20T10:25:04;7.60;;;6.40;;
8737;SDS011;4405;49.272;8.590;2023-05-20T10:27:42;14.30;;;8.50;;
8737;SDS011;4405;49.272;8.590;2023-05-20T10:30:14;9.73;;;7.63;;
8737;SDS011;4405;49.272;8.590;2023-05-20T10:32:47;8.93;;;6.50;;
8737;SDS011;4405;49.272;8.590;2023-05-20T10:35:19;8.23;;;6.10;;
8737;SDS011;4405;49.272;8.590;2023-05-20T10:37:45;6.10;;;5.50;;
8737;SDS011;4405;49.272;8.590;2023-05-20T10:40:14;6.37;;;5.07;;
8737;SDS011;4405;49.272;8.590;2023-05-20T10:42:42;7.40;;;4.70;;
8737;SDS011;4405;49.272;8.590;2023-05-20T10:45:09;6.53;;;4.77;;
8737;SDS011;4405;49.272;8.590;2023-05-20T10:47:35;4.80;;;4.60;;
8737;SDS011;4405;49.272;8.590;2023-05-20T10:50:02;5.13;;;4.30;;
8737;SDS011;4405;49.272;8.590;2023-05-20T10:52:31;4.63;;;4.23;;
8737;SDS011;4405;49.272;8.590;2023-05-20T10:54:59;4.67;;;4.37;;
8737;SDS011;4405;49.272;8.590;2023-05-20T10:57:26;4.30;;;4.10;;
8737;SDS011;4405;49.272;8.590;2023-05-20T10:59:53;5.47;;;4.40;;
8737;SDS011;4405;49.272;8.590;2023-05-20T11:02:20;4.50;;;4.20;;
8737;SDS011;4405;49.272;8.590;2023-05-20T11:04:50;4.60;;;4.30;;
8737;SDS011;4405;49.272;8.590;2023-05-20T11:07:23;4.70;;;4.40;;
8737;SDS011;4405;49.272;8.590;2023-05-20T11:09:49;5.03;;;4.30;;
8737;SDS011;4405;49.272;8.590;2023-05-20T11:12:16;5.00;;;4.60;;
8737;SDS011;4405;49.272;8.590;2023-05-20T11:14:42;4.37;;;4.07;;
8737;SDS011;4405;49.272;8.590;2023-05-20T11:17:10;4.37;;;4.07;;
8737;SDS011;4405;49.272;8.590;2023-05-20T11:19:36;4.57;;;4.27;;
8737;SDS011;4405;49.272;8.590;2023-05-20T11:22:02;4.13;;;4.00;;
8737;SDS011;4405;49.272;8.590;2023-05-20T11:24:30;5.00;;;4.57;;
8737;SDS011;4405;49.272;8.590;2023-05-20T11:26:56;4.57;;;4.37;;
8737;SDS011;4405;49.272;8.590;2023-05-20T11:29:25;4.40;;;4.07;;
8737;SDS011;4405;49.272;8.590;2023-05-20T11:31:53;4.43;;;4.13;;
8737;SDS011;4405;49.272;8.590;2023-05-20T11:34:21;4.50;;;4.23;;
8737;SDS011;4405;49.272;8.590;2023-05-20T11:36:47;4.40;;;4.17;;
8737;SDS011;4405;49.272;8.590;2023-05-20T11:39:15;4.90;;;4.40;;
8737;SDS011;4405;49.272;8.590;2023-05-20T11:41:41;4.60;;;4.30;;
8737;SDS011;4405;49.272;8.590;2023-05-20T11:44:08;4.40;;;4.10;;
8737;SDS011;4405;49.272;8.590;2023-05-20T11:46:39;4.07;;;3.87;;
8737;SDS011;4405;49.272;8.590;2023-05-20T11:49:06;4.77;;;4.07;;
8737;SDS011;4405;49.272;8.590;2023-05-20T11:51:33;4.37;;;4.17;;
8737;SDS011;4405;49.272;8.590;2023-05-20T11:54:00;4.30;;;4.10;;
8737;SDS011;4405;49.272;8.590;2023-05-20T11:56:27;4.40;;;4.20;;
8737;SDS011;4405;49.272;8.590;2023-05-20T11:58:53;4.70;;;4.40;;
8737;SDS011;4405;49.272;8.590;2023-05-20T12:01:21;4.30;;;4.10;;
8737;SDS011;4405;49.272;8.590;2023-05-20T12:03:48;4.87;;;4.47;;
8737;SDS011;4405;49.272;8.590;2023-05-20T12:06:15;4.40;;;4.20;;
8737;SDS011;4405;49.272;8.590;2023-05-20T12:08:43;4.57;;;4.27;;
8737;SDS011;4405;49.272;8.590;2023-05-20T12:11:09;4.20;;;3.90;;
8737;SDS011;4405;49.272;8.590;2023-05-20T12:13:36;4.33;;;3.97;;
8737;SDS011;4405;49.272;8.590;2023-05-20T12:16:02;4.53;;;4.33;;
8737;SDS011;4405;49.272;8.590;2023-05-20T12:18:29;4.40;;;4.10;;
8737;SDS011;4405;49.272;8.590;2023-05-20T12:20:56;4.13;;;3.93;;
8737;SDS011;4405;49.272;8.590;2023-05-20T12:23:23;4.00;;;3.80;;
8737;SDS011;4405;49.272;8.590;2023-05-20T12:25:51;4.30;;;4.10;;
8737;SDS011;4405;49.272;8.590;2023-05-20T12:28:18;4.20;;;4.00;;
8737;SDS011;4405;49.272;8.590;2023-05-20T12:30:44;3.93;;;3.73;;
8737;SDS011;4405;49.272;8.590;2023-05-20T12:33:10;4.00;;;3.90;;
8737;SDS011;4405;49.272;8.590;2023-05-20T12:35:37;4.13;;;3.93;;
8737;SDS011;4405;49.272;8.590;2023-05-20T12:38:04;3.90;;;3.80;;
8737;SDS011;4405;49.272;8.590;2023-05-20T12:40:32;4.17;;;3.93;;
8737;SDS011;4405;49.272;8.590;2023-05-20T12:42:59;3.93;;;3.77;;
8737;SDS011;4405;49.272;8.590;2023-05-20T12:45:26;4.47;;;4.20;;
8737;SDS011;4405;49.272;8.590;2023-05-20T12:47:52;4.07;;;3.87;;
8737;SDS011;4405;49.272;8.590;2023-05-20T12:50:19;4.30;;;4.10;;
8737;SDS011;4405;49.272;8.590;2023-05-20T12:52:45;4.33;;;3.93;;
8737;SDS011;4405;49.272;8.590;2023-05-20T12:55:11;4.23;;;4.03;;
8737;SDS011;4405;49.272;8.590;2023-05-20T12:57:38;4.07;;;3.77;;
8737;SDS011;4405;49.272;8.590;2023-05-20T13:00:07;4.47;;;4.13;;
8737;SDS011;4405;49.272;8.590;2023-05-20T13:02:34;4.17;;;3.87;;
8737;SDS011;4405;49.272;8.590;2023-05-20T13:05:00;4.07;;;3.87;;
8737;SDS011;4405;49.272;8.590;2023-05-20T13:07:26;4.60;;;4.20;;
8737;SDS011;4405;49.272;8.590;2023-05-20T13:09:53;4.13;;;3.93;;
8737;SDS011;4405;49.272;8.590;2023-05-20T13:12:19;4.00;;;3.80;;
8737;SDS011;4405;49.272;8.590;2023-05-20T13:14:45;4.10;;;3.90;;
8737;SDS011;4405;49.272;8.590;2023-05-20T13:17:13;4.37;;;4.10;;
8737;SDS011;4405;49.272;8.590;2023-05-20T13:19:40;3.70;;;3.60;;
8737;SDS011;4405;49.272;8.590;2023-05-20T13:22:06;3.90;;;3.80;;
8737;SDS011;4405;49.272;8.590;2023-05-20T13:24:33;4.27;;;3.97;;
8737;SDS011;4405;49.272;8.590;2023-05-20T13:26:59;4.50;;;4.10;;
8737;SDS011;4405;49.272;8.590;2023-05-20T13:29:26;4.17;;;3.97;;
8737;SDS011;4405;49.272;8.590;2023-05-20T13:31:52;4.10;;;3.80;;
8737;SDS011;4405;49.272;8.590;2023-05-20T13:34:20;4.20;;;4.00;;
8737;SDS011;4405;49.272;8.590;2023-05-20T13:36:46;4.30;;;4.10;;
8737;SDS011;4405;49.272;8.590;2023-05-20T13:39:13;4.30;;;4.10;;
8737;SDS011;4405;49.272;8.590;2023-05-20T13:41:39;4.70;;;4.50;;
8737;SDS011;4405;49.272;8.590;2023-05-20T13:44:06;4.67;;;4.37;;
8737;SDS011;4405;49.272;8.590;2023-05-20T13:46:32;4.77;;;3.90;;
8737;SDS011;4405;49.272;8.590;2023-05-20T13:48:58;4.50;;;4.30;;
8737;SDS011;4405;49.272;8.590;2023-05-20T13:51:26;4.63;;;4.33;;
8737;SDS011;4405;49.272;8.590;2023-05-20T13:53:53;5.17;;;4.77;;
8737;SDS011;4405;49.272;8.590;2023-05-20T13:56:19;4.33;;;4.03;;
8737;SDS011;4405;49.272;8.590;2023-05-20T13:58:45;4.63;;;4.20;;
8737;SDS011;4405;49.272;8.590;2023-05-20T14:01:12;4.60;;;4.40;;
8737;SDS011;4405;49.272;8.590;2023-05-20T14:03:39;4.40;;;4.10;;
8737;SDS011;4405;49.272;8.590;2023-05-20T14:06:06;4.67;;;4.27;;
8737;SDS011;4405;49.272;8.590;2023-05-20T14:08:34;6.00;;;4.77;;
8737;SDS011;4405;49.272;8.590;2023-05-20T14:11:00;4.50;;;4.30;;
8737;SDS011;4405;49.272;8.590;2023-05-20T14:13:26;4.90;;;4.50;;
8737;SDS011;4405;49.272;8.590;2023-05-20T14:15:53;5.13;;;4.80;;
8737;SDS011;4405;49.272;8.590;2023-05-20T14:18:19;4.97;;;4.57;;
8737;SDS011;4405;49.272;8.590;2023-05-20T14:20:46;9.33;;;4.47;;
8737;SDS011;4405;49.272;8.590;2023-05-20T14:23:12;4.97;;;4.57;;
8737;SDS011;4405;49.272;8.590;2023-05-20T14:25:40;4.93;;;4.63;;
8737;SDS011;4405;49.272;8.590;2023-05-20T14:28:07;5.20;;;4.80;;
8737;SDS011;4405;49.272;8.590;2023-05-20T14:30:33;4.90;;;4.60;;
8737;SDS011;4405;49.272;8.590;2023-05-20T14:33:00;4.50;;;4.30;;
8737;SDS011;4405;49.272;8.590;2023-05-20T14:35:26;4.50;;;4.30;;
8737;SDS011;4405;49.272;8.590;2023-05-20T14:37:52;5.00;;;4.70;;
8737;SDS011;4405;49.272;8.590;2023-05-20T14:40:19;4.47;;;4.27;;
8737;SDS011;4405;49.272;8.590;2023-05-20T14:42:46;5.13;;;4.80;;
8737;SDS011;4405;49.272;8.590;2023-05-20T14:45:13;4.80;;;4.50;;
8737;SDS011;4405;49.272;8.590;2023-05-20T14:47:39;4.40;;;4.20;;
8737;SDS011;4405;49.272;8.590;2023-05-20T14:50:06;4.87;;;4.57;;
8737;SDS011;4405;49.272;8.590;2023-05-20T14:52:32;4.87;;;4.57;;
8737;SDS011;4405;49.272;8.590;2023-05-20T14:54:58;4.87;;;4.57;;
8737;SDS011;4405;49.272;8.590;2023-05-20T14:57:25;4.97;;;4.77;;
8737;SDS011;4405;49.272;8.590;2023-05-20T14:59:52;4.53;;;4.20;;
8737;SDS011;4405;49.272;8.590;2023-05-20T15:02:19;5.20;;;4.90;;
8737;SDS011;4405;49.272;8.590;2023-05-20T15:04:45;5.03;;;4.73;;
8737;SDS011;4405;49.272;8.590;2023-05-20T15:07:12;5.00;;;4.60;;
8737;SDS011;4405;49.272;8.590;2023-05-20T15:09:39;5.13;;;4.83;;
8737;SDS011;4405;49.272;8.590;2023-05-20T15:12:06;5.17;;;4.77;;